Tropical Cyclones
[Index]
Main Index Home Page Stock Weather Photos Extreme Storms Discussion Storm News and Storm Chasing Reports Tropical Cyclones / Hurricanes / Typhoons Weather Data and Links Wild Fires / Bushfires Weather Observation Techniques Weather Picture Catalogue Tornado Pictures and Reports Stock Video Footage and DVDs for sale
Season 2006-2007 Tropical Cyclone GEORGE Track Map
Season 2006-2007 Summaries (Operational Data): [AU] [SIO] [SPAC] [SH]
<<- Previous TC | 2006-2007 Season | Next TC ->>

click for intensity scale information  Lat/long Grid: Show Hide

 Date Labels: Show Hide

Operational Tropical Cyclone Data : JTWC Advisories | BoM Warnings

Name: GEORGE
Number: 0717

26 Feb 2007 01:00 UTC to 10 Mar 2007 00:00 UTC

    date/time    lat    long     hPa   cat  kts
2007-02-26 01   10.5   135.5    1003         20          
2007-02-27 02   12.2   134.8    1001         25          
2007-02-28 00   12.3   134.5     998         30          
2007-02-28 06   12.3   135.0     998         30          
2007-02-28 12   12.3   135.0     997         30          
2007-02-28 18   12.3   135.4     994         30          
2007-03-01 00   12.3   134.4     996         30          
2007-03-01 06   12.7   135.7     995         30          
2007-03-01 12   13.0   135.0     997         30          
2007-03-01 18   13.1   134.8     996         30          
2007-03-02 00   13.2   133.6     998         30          
2007-03-02 06   13.0   133.2     994         30          
2007-03-02 12   12.9   132.7     997         30          
2007-03-02 18   13.2   131.5     995         30          
2007-03-03 00   13.3   130.8     996         30          
2007-03-03 06   13.8   130.0     996         30          
2007-03-03 12   14.0   129.4     994         30          
2007-03-03 18   14.5   129.3     990    1    35          
2007-03-04 00   14.5   128.5     982    2    50          
2007-03-04 06   14.5   127.7     988    1    40          
2007-03-04 12   14.3   127.3     994         30          
2007-03-04 18   14.3   126.3     990    1    40          
2007-03-05 00   14.5   125.5     982    1    45          
2007-03-05 06   14.5   124.7     982    1    45          
2007-03-05 12   14.5   124.0     982    1    45          
2007-03-05 18   14.6   123.1     976    2    50          
2007-03-06 00   14.6   122.1     976    2    50          
2007-03-06 06   14.5   121.8     976    2    50          
2007-03-06 12   14.6   120.7     976    2    50          
2007-03-06 18   14.8   119.8     976    2    50          
2007-03-07 00   15.0   119.1     972    2    50          
2007-03-07 06   15.3   118.6     958    3    65          
2007-03-07 12   15.7   119.1     952    3    75          
2007-03-07 18   16.7   119.0     950    3    75          
2007-03-08 00   17.6   119.0     950    3    75          
2007-03-08 06   18.9   119.0     942    3    80          
2007-03-08 12   19.9   119.1     910    4   105          
2007-03-08 18   21.0   118.7     916    4   100          
2007-03-09 00   21.8   118.7     954    3    70          
2007-03-09 06   22.2   119.4     954    3    70          
2007-03-09 12   22.9   120.4     975    2    50          
2007-03-09 18   23.5   121.2     984    1    40          
2007-03-10 00   23.6   121.7     988         30          
Winds are 10-min average.

Tropical cyclone tracks developed by Michael Bath using operational warnings and advisories and Google Maps.


[Australian Severe Weather index] [Copyright Notice] [Email Contacts] [Search This Site] [Privacy Policy]
Document: tropical_cyclone_george.htm Updated: 28 May 2013